Time;durP1;ratioP1;P1;durP2;ratioP2;P2;SDS_P1;SDS_P2;PMS_P1;PMS_P2;Temp;Humidity;BMP_temperature;BMP_pressure;BME280_temperature;BME280_humidity;BME280_pressure;Samples;Min_cycle;Max_cycle;Signal;HPM_P1;HPM_P2
2023/12/26 04:00:42;;;;;;;0.30;0.20;;;24.20;34.80;;;;;;5941174;22;44922;-92
2023/12/26 04:03:07;;;;;;;0.22;0.10;;;24.20;34.90;;;;;;4972591;28;45236;-83
2023/12/26 04:05:35;;;;;;;0.70;0.20;;;24.20;34.90;;;;;;4948134;28;60749;-81
2023/12/26 04:08:03;;;;;;;0.35;0.20;;;24.10;34.80;;;;;;4965150;28;45014;-85
2023/12/26 04:10:29;;;;;;;0.30;0.10;;;24.10;34.80;;;;;;4982712;28;44640;-85
2023/12/26 04:12:56;;;;;;;2.20;0.30;;;24.10;34.80;;;;;;4999162;28;45198;-85
2023/12/26 04:15:24;;;;;;;0.93;0.28;;;24.10;34.80;;;;;;4985469;28;45285;-85
2023/12/26 04:17:50;;;;;;;0.80;0.30;;;24.10;34.80;;;;;;5000880;28;46171;-87
2023/12/26 04:20:16;;;;;;;0.52;0.25;;;24.10;34.80;;;;;;5015882;28;45015;-83
2023/12/26 04:22:42;;;;;;;0.35;0.20;;;24.10;34.80;;;;;;4993841;28;45227;-82
2023/12/26 04:25:08;;;;;;;0.43;0.20;;;24.10;34.70;;;;;;5000005;28;45211;-88
2023/12/26 04:27:34;;;;;;;0.82;0.38;;;24.10;34.70;;;;;;4983520;28;45907;-81
2023/12/26 04:30:00;;;;;;;1.85;0.30;;;24.10;34.60;;;;;;4989964;28;44648;-83
2023/12/26 04:32:26;;;;;;;0.77;0.40;;;24.10;34.60;;;;;;4994803;28;45159;-80
2023/12/26 04:34:52;;;;;;;0.97;0.50;;;24.10;34.70;;;;;;5002726;28;45249;-81
2023/12/26 04:37:21;;;;;;;1.20;0.43;;;24.00;34.50;;;;;;4964588;28;45534;-84
2023/12/26 04:39:47;;;;;;;0.60;0.40;;;24.00;34.60;;;;;;5017917;28;46135;-89
2023/12/26 04:42:13;;;;;;;0.50;0.30;;;24.00;34.50;;;;;;4982329;28;45261;-87
2023/12/26 04:44:40;;;;;;;1.05;0.38;;;24.00;34.50;;;;;;4968838;28;45478;-82
2023/12/26 04:47:06;;;;;;;1.10;0.47;;;24.00;34.50;;;;;;4980388;28;45274;-83
2023/12/26 04:49:32;;;;;;;1.40;0.50;;;24.00;34.50;;;;;;4995692;28;45030;-80
2023/12/26 04:51:58;;;;;;;1.00;0.30;;;24.00;34.60;;;;;;5001718;28;44783;-92
2023/12/26 04:54:24;;;;;;;1.20;0.47;;;24.00;34.50;;;;;;4998119;28;45613;-84
2023/12/26 04:56:50;;;;;;;1.55;0.60;;;24.00;34.60;;;;;;4968786;28;46219;-80
2023/12/26 04:59:16;;;;;;;1.03;0.40;;;24.00;34.50;;;;;;5002998;28;45307;-85
2023/12/26 05:01:42;;;;;;;1.10;0.50;;;23.90;34.50;;;;;;5006245;28;45156;-87
2023/12/26 05:04:11;;;;;;;1.45;0.60;;;24.00;34.50;;;;;;5022133;28;44807;-83
2023/12/26 05:06:37;;;;;;;1.38;0.60;;;24.00;34.50;;;;;;5030802;28;47238;-81
2023/12/26 05:09:04;;;;;;;1.70;0.50;;;23.90;34.50;;;;;;5019746;28;44797;-85
2023/12/26 05:11:30;;;;;;;1.52;0.60;;;23.90;34.50;;;;;;5020901;28;44984;-83
2023/12/26 05:13:55;;;;;;;1.67;0.70;;;23.90;34.50;;;;;;5018028;28;45126;-87
2023/12/26 05:16:21;;;;;;;1.67;0.50;;;23.90;34.50;;;;;;5014948;28;45813;-86
2023/12/26 05:18:47;;;;;;;1.50;0.60;;;23.90;34.50;;;;;;5018865;28;45358;-84
2023/12/26 05:21:31;;;;;;;1.60;0.57;;;23.90;34.60;;;;;;5035693;28;45184;-81
2023/12/26 05:23:57;;;;;;;1.95;0.50;;;23.90;34.50;;;;;;5017980;28;45309;-85
2023/12/26 05:26:23;;;;;;;1.23;0.50;;;23.90;34.50;;;;;;5004934;28;46278;-82
2023/12/26 05:28:49;;;;;;;2.20;0.60;;;23.90;34.50;;;;;;5018664;28;45468;-83
2023/12/26 05:31:19;;;;;;;1.13;0.60;;;23.90;34.60;;;;;;5001339;28;45411;-85
2023/12/26 05:33:45;;;;;;;1.40;0.55;;;23.80;34.40;;;;;;5014272;28;45305;-83
2023/12/26 05:36:11;;;;;;;1.40;0.60;;;23.90;34.50;;;;;;5035211;28;46101;-83
2023/12/26 05:38:37;;;;;;;1.27;0.52;;;23.80;34.40;;;;;;5010157;28;45209;-84
2023/12/26 05:41:04;;;;;;;1.25;0.47;;;23.80;34.40;;;;;;5029005;28;45032;-93
2023/12/26 05:43:31;;;;;;;1.48;0.60;;;23.80;34.40;;;;;;5036853;28;44750;-80
2023/12/26 05:45:57;;;;;;;1.88;0.70;;;23.80;34.40;;;;;;4992545;28;46211;-84
2023/12/26 05:48:23;;;;;;;1.63;0.60;;;23.80;34.50;;;;;;5007669;28;45233;-84
2023/12/26 05:50:49;;;;;;;2.53;0.70;;;23.80;34.40;;;;;;5024500;28;45194;-81
2023/12/26 05:53:15;;;;;;;1.58;0.60;;;23.80;34.40;;;;;;5008809;28;45560;-84
2023/12/26 05:55:40;;;;;;;1.52;0.57;;;23.80;34.40;;;;;;5025767;28;45632;-82
2023/12/26 05:58:06;;;;;;;1.95;0.70;;;23.80;34.40;;;;;;5007056;28;45328;-81
2023/12/26 06:00:32;;;;;;;1.83;0.70;;;23.70;34.30;;;;;;5021578;28;44931;-81
2023/12/26 06:02:58;;;;;;;1.70;0.60;;;23.70;34.40;;;;;;5037433;28;46540;-84
2023/12/26 06:05:24;;;;;;;2.17;0.90;;;23.70;34.30;;;;;;5018075;28;45377;-81
2023/12/26 06:07:50;;;;;;;2.22;0.80;;;23.70;34.30;;;;;;5007863;28;45251;-84
2023/12/26 06:10:17;;;;;;;1.45;0.60;;;23.70;34.30;;;;;;5006057;28;45189;-84
2023/12/26 06:12:42;;;;;;;2.38;0.70;;;23.70;34.30;;;;;;5011983;28;45205;-81
2023/12/26 06:15:08;;;;;;;1.92;0.80;;;23.70;34.40;;;;;;5005173;28;46241;-83
2023/12/26 06:17:36;;;;;;;2.67;0.82;;;23.70;34.30;;;;;;5020582;28;45458;-85
2023/12/26 06:20:06;;;;;;;1.85;0.70;;;23.70;34.40;;;;;;5008979;28;44759;-81
2023/12/26 06:22:32;;;;;;;1.35;0.60;;;23.70;34.40;;;;;;5009506;28;45373;-81
2023/12/26 06:24:58;;;;;;;1.80;0.70;;;23.70;34.40;;;;;;5023092;28;45260;-81
2023/12/26 06:27:24;;;;;;;1.70;0.70;;;23.70;34.30;;;;;;5020820;28;44592;-84
2023/12/26 06:29:50;;;;;;;2.13;0.82;;;23.70;34.40;;;;;;5033428;28;45182;-80
2023/12/26 06:32:16;;;;;;;2.25;0.82;;;23.70;34.40;;;;;;5027231;28;44750;-82
2023/12/26 06:34:42;;;;;;;2.05;0.80;;;23.60;34.30;;;;;;5025254;28;45347;-80
2023/12/26 06:37:08;;;;;;;1.70;0.60;;;23.70;34.30;;;;;;5026583;28;45177;-85
2023/12/26 06:39:35;;;;;;;1.05;0.50;;;23.60;34.30;;;;;;5002443;28;45227;-83
2023/12/26 06:42:00;;;;;;;1.90;0.60;;;23.60;34.20;;;;;;5012226;28;45132;-82
2023/12/26 06:44:26;;;;;;;1.80;0.70;;;23.60;34.30;;;;;;5025343;28;45215;-85
2023/12/26 06:46:52;;;;;;;1.47;0.60;;;23.60;34.30;;;;;;5017761;28;45081;-81
2023/12/26 06:49:19;;;;;;;1.40;0.63;;;23.60;34.20;;;;;;5008187;28;44906;-81
2023/12/26 06:51:46;;;;;;;2.33;0.80;;;23.60;34.30;;;;;;5024742;28;44821;-83
2023/12/26 06:54:12;;;;;;;2.40;0.68;;;23.60;34.40;;;;;;5014651;28;47388;-84
2023/12/26 06:56:38;;;;;;;2.03;0.70;;;23.60;34.30;;;;;;5024305;28;45196;-82
2023/12/26 06:59:04;;;;;;;1.98;0.70;;;23.60;34.30;;;;;;5009633;28;45478;-81
2023/12/26 07:01:29;;;;;;;1.20;0.50;;;23.60;34.30;;;;;;5020584;28;45779;-81
2023/12/26 07:03:55;;;;;;;1.07;0.50;;;23.60;34.30;;;;;;5024562;28;45479;-83
2023/12/26 07:06:22;;;;;;;1.45;0.68;;;23.50;34.30;;;;;;5019340;28;45283;-84
2023/12/26 07:08:48;;;;;;;1.38;0.60;;;23.50;34.30;;;;;;5022455;28;44625;-86
2023/12/26 07:11:14;;;;;;;1.75;0.80;;;23.50;34.30;;;;;;5022911;28;45278;-81
2023/12/26 07:13:40;;;;;;;2.10;0.77;;;23.50;34.30;;;;;;5024873;28;45369;-82
2023/12/26 07:16:07;;;;;;;2.03;0.63;;;23.50;34.30;;;;;;5024026;28;45210;-83
2023/12/26 07:18:33;;;;;;;2.10;0.80;;;23.50;34.20;;;;;;5043938;28;45122;-81
2023/12/26 07:20:58;;;;;;;1.60;0.65;;;23.50;34.30;;;;;;5022880;28;44851;-85
2023/12/26 07:23:25;;;;;;;1.50;0.60;;;23.50;34.30;;;;;;5010162;28;45714;-83
2023/12/26 07:25:50;;;;;;;1.50;0.60;;;23.50;34.30;;;;;;5021747;28;45517;-81
2023/12/26 07:28:17;;;;;;;2.20;0.80;;;23.50;34.40;;;;;;4997827;28;45445;-82
2023/12/26 07:30:43;;;;;;;1.97;0.60;;;23.50;34.30;;;;;;5022090;28;45285;-86
2023/12/26 07:33:10;;;;;;;2.75;0.95;;;23.50;34.30;;;;;;5019164;28;47165;-83
2023/12/26 07:35:37;;;;;;;1.77;0.70;;;23.50;34.30;;;;;;5051455;28;45405;-86
2023/12/26 07:38:03;;;;;;;2.70;0.83;;;23.50;34.30;;;;;;5008303;28;44768;-81
2023/12/26 07:40:30;;;;;;;2.47;0.77;;;23.50;34.40;;;;;;5004774;28;44974;-84
2023/12/26 07:42:57;;;;;;;1.92;0.75;;;23.50;34.40;;;;;;5027108;28;45257;-83
2023/12/26 07:45:24;;;;;;;1.70;0.80;;;23.50;34.30;;;;;;5023220;28;45265;-81
2023/12/26 07:47:51;;;;;;;2.60;0.95;;;23.50;34.30;;;;;;4997664;28;45245;-81
2023/12/26 07:50:17;;;;;;;1.63;0.80;;;23.50;34.40;;;;;;5000446;28;45585;-84
2023/12/26 07:52:43;;;;;;;2.22;0.82;;;23.40;34.30;;;;;;5021913;28;46320;-85
2023/12/26 07:55:10;;;;;;;2.72;0.90;;;23.40;34.30;;;;;;5021752;28;45190;-81
2023/12/26 07:57:35;;;;;;;2.65;1.17;;;23.40;34.30;;;;;;5009249;28;45170;-88
2023/12/26 08:00:01;;;;;;;3.13;1.10;;;23.50;34.30;;;;;;5022386;28;44926;-88
2023/12/26 08:02:27;;;;;;;2.90;1.08;;;23.40;34.40;;;;;;5008987;28;47372;-81
2023/12/26 08:04:55;;;;;;;2.30;1.00;;;23.40;34.30;;;;;;5011613;28;45512;-82
2023/12/26 08:07:21;;;;;;;2.53;1.20;;;23.40;34.40;;;;;;5007257;28;44645;-82
2023/12/26 08:34:02;;;;;;;2.05;1.10;;;23.30;34.40;;;;;;4859893;29;45149;-82
2023/12/26 08:41:14;;;;;;;2.17;1.00;;;23.30;34.60;;;;;;4821477;29;45107;-81
2023/12/26 10:31:30;;;;;;;1.90;0.90;;;23.10;35.00;;;;;;5008991;28;45297;-87
2023/12/26 10:33:58;;;;;;;1.60;0.60;;;23.10;35.00;;;;;;5016358;28;45296;-85
2023/12/26 10:36:27;;;;;;;1.73;0.80;;;23.10;35.00;;;;;;4999423;28;45233;-84
2023/12/26 10:39:15;;;;;;;1.92;0.70;;;23.10;35.00;;;;;;5005817;28;45295;-81
2023/12/26 10:42:03;;;;;;;1.42;0.70;;;23.10;35.60;;;;;;4994750;28;45464;-90
2023/12/26 10:45:19;;;;;;;1.42;0.63;;;23.10;35.00;;;;;;5033754;28;45533;-81
2023/12/26 10:49:19;;;;;;;3.10;1.10;;;23.10;35.00;;;;;;5027476;28;45464;-83
2023/12/26 10:53:08;;;;;;;1.45;0.70;;;23.10;35.00;;;;;;5013207;28;45436;-86
2023/12/26 13:53:30;;;;;;;1.57;0.83;;;22.80;35.80;;;;;;5041575;28;45155;-80
2023/12/26 16:22:41;;;;;;;4.78;3.65;;;22.60;36.10;;;;;;4943807;28;45681;-43
2023/12/26 16:25:07;;;;;;;3.63;2.80;;;22.60;36.20;;;;;;4985136;28;45248;-44
2023/12/26 16:27:33;;;;;;;4.93;3.10;;;22.60;36.20;;;;;;4955724;28;45419;-43
2023/12/26 16:29:59;;;;;;;4.20;2.37;;;22.60;36.20;;;;;;4992135;28;46298;-42
2023/12/26 16:32:25;;;;;;;2.83;2.20;;;22.60;36.20;;;;;;4973968;28;45994;-41
2023/12/26 16:34:50;;;;;;;3.13;1.88;;;22.70;36.20;;;;;;4999478;28;44672;-43
2023/12/26 16:37:16;;;;;;;2.42;1.73;;;22.70;36.20;;;;;;5006527;28;44791;-44
2023/12/26 16:39:42;;;;;;;2.30;1.65;;;22.70;36.20;;;;;;4996730;28;46415;-43
2023/12/26 16:42:11;;;;;;;2.37;1.60;;;22.60;36.10;;;;;;4996499;28;45508;-43
2023/12/26 16:44:44;;;;;;;2.05;1.35;;;22.70;36.20;;;;;;4960243;28;46671;-41
2023/12/26 16:47:10;;;;;;;1.85;1.30;;;22.70;36.20;;;;;;4977462;28;45276;-45
2023/12/26 16:49:36;;;;;;;2.03;1.20;;;22.70;36.10;;;;;;4973115;28;45759;-45
2023/12/26 16:52:02;;;;;;;1.55;1.33;;;22.70;36.10;;;;;;4981552;28;47237;-44
2023/12/26 16:54:27;;;;;;;1.20;1.00;;;22.70;36.10;;;;;;4999267;28;45456;-41
2023/12/26 16:56:53;;;;;;;2.10;1.10;;;22.80;36.10;;;;;;5004876;28;45276;-42
2023/12/26 16:59:20;;;;;;;2.20;1.27;;;22.80;36.10;;;;;;5009514;28;45258;-43
2023/12/26 17:01:45;;;;;;;1.45;0.93;;;22.80;36.10;;;;;;4996787;28;45430;-41
2023/12/26 17:04:15;;;;;;;1.30;0.98;;;22.80;36.10;;;;;;5009799;28;45854;-42
2023/12/26 17:06:41;;;;;;;1.50;1.00;;;22.80;36.00;;;;;;4990038;28;45226;-46
2023/12/26 17:09:06;;;;;;;1.30;0.90;;;22.80;36.00;;;;;;4993026;28;45400;-43
2023/12/26 17:11:32;;;;;;;1.20;1.07;;;22.90;36.10;;;;;;4996732;28;45263;-42
2023/12/26 17:13:58;;;;;;;1.60;1.00;;;22.90;36.00;;;;;;5007067;28;44684;-44
2023/12/26 17:16:24;;;;;;;2.33;1.20;;;22.90;36.00;;;;;;4999625;28;46239;-43
2023/12/26 17:18:49;;;;;;;2.00;1.13;;;22.90;36.00;;;;;;4989948;28;46791;-44
2023/12/26 17:21:15;;;;;;;1.60;1.10;;;22.90;36.00;;;;;;4998293;28;46163;-44
2023/12/26 17:23:40;;;;;;;1.90;1.20;;;23.00;36.00;;;;;;4996177;28;45786;-44
2023/12/26 17:26:06;;;;;;;1.55;1.23;;;23.00;36.00;;;;;;4979294;28;45967;-44
2023/12/26 17:28:32;;;;;;;2.28;1.20;;;23.00;35.90;;;;;;5017485;28;45610;-42
2023/12/26 17:30:57;;;;;;;1.98;1.33;;;23.10;36.00;;;;;;5004708;28;45285;-42
2023/12/26 17:33:23;;;;;;;2.53;1.27;;;23.10;35.90;;;;;;5011169;28;45283;-44
2023/12/26 17:35:48;;;;;;;1.67;1.30;;;23.10;35.90;;;;;;5007869;28;46228;-42
2023/12/26 17:38:14;;;;;;;2.23;1.50;;;23.10;35.90;;;;;;5014965;28;47627;-42
2023/12/26 17:40:40;;;;;;;2.30;1.40;;;23.10;35.80;;;;;;4975517;28;45593;-45
2023/12/26 17:43:05;;;;;;;1.93;1.20;;;23.10;35.80;;;;;;4991815;28;47162;-44
2023/12/26 17:45:31;;;;;;;2.10;1.30;;;23.20;35.80;;;;;;4966944;28;46382;-42
2023/12/26 17:47:57;;;;;;;1.97;1.30;;;23.30;35.80;;;;;;4991191;28;46045;-45
2023/12/26 17:50:22;;;;;;;1.43;1.10;;;23.20;35.70;;;;;;4999264;28;45563;-42
2023/12/26 17:52:48;;;;;;;1.63;1.30;;;23.30;35.80;;;;;;5013916;28;45331;-44
2023/12/26 17:55:14;;;;;;;1.80;1.17;;;23.30;35.70;;;;;;5000174;28;45177;-44
2023/12/26 17:57:40;;;;;;;1.90;1.40;;;23.30;35.70;;;;;;5005218;28;47637;-42
2023/12/26 18:00:08;;;;;;;1.80;1.30;;;23.30;35.60;;;;;;5012732;28;45998;-47
2023/12/26 18:02:33;;;;;;;1.50;1.10;;;23.40;35.60;;;;;;4961410;28;47291;-42
2023/12/26 18:04:59;;;;;;;1.67;1.20;;;23.40;35.60;;;;;;5008675;28;45801;-43
2023/12/26 18:07:25;;;;;;;1.90;1.15;;;23.40;35.60;;;;;;5002084;28;45256;-44
2023/12/26 18:09:51;;;;;;;1.63;1.00;;;23.50;35.50;;;;;;4993751;28;45575;-43
2023/12/26 18:12:16;;;;;;;2.30;1.20;;;23.50;35.50;;;;;;4999232;28;44775;-42
2023/12/26 18:14:42;;;;;;;2.03;1.30;;;23.50;35.40;;;;;;5013558;28;45891;-42
2023/12/26 18:17:08;;;;;;;1.27;1.15;;;23.50;35.40;;;;;;4984140;28;46238;-43
2023/12/26 18:19:34;;;;;;;1.83;1.50;;;23.50;35.40;;;;;;4999787;28;45537;-43
2023/12/26 18:21:59;;;;;;;2.60;2.08;;;23.60;35.40;;;;;;5001500;28;46456;-43
2023/12/26 18:24:25;;;;;;;2.53;2.05;;;23.60;35.40;;;;;;4988640;28;45421;-42
2023/12/26 18:26:51;;;;;;;2.85;1.80;;;23.70;35.40;;;;;;4958144;28;47482;-44
2023/12/26 18:29:16;;;;;;;2.53;2.20;;;23.70;35.30;;;;;;5015544;28;45287;-41
2023/12/26 18:31:43;;;;;;;2.10;1.90;;;23.70;35.20;;;;;;4975159;28;45420;-43
2023/12/26 18:34:09;;;;;;;2.58;2.10;;;23.70;35.20;;;;;;4978137;28;45636;-45
2023/12/26 18:36:35;;;;;;;3.55;2.42;;;23.80;35.20;;;;;;5002321;28;45529;-42
2023/12/26 18:39:01;;;;;;;3.40;2.40;;;23.80;35.10;;;;;;5015976;28;44638;-42
2023/12/26 18:41:26;;;;;;;2.73;2.20;;;23.80;35.10;;;;;;4987922;28;45248;-44
2023/12/26 18:43:52;;;;;;;2.33;2.10;;;23.90;35.10;;;;;;4998253;28;45160;-42
2023/12/26 18:46:19;;;;;;;2.87;2.30;;;23.90;35.10;;;;;;4993894;28;45380;-43
2023/12/26 18:48:46;;;;;;;2.10;1.90;;;24.00;35.10;;;;;;4995969;28;45778;-43
2023/12/26 18:51:13;;;;;;;2.95;2.00;;;24.00;35.10;;;;;;4999822;28;45405;-43
2023/12/26 18:53:38;;;;;;;2.67;2.05;;;24.00;35.10;;;;;;5006097;28;46557;-42
2023/12/26 18:56:14;;;;;;;2.00;1.80;;;24.00;34.90;;;;;;5004909;28;45726;-42
2023/12/26 18:58:39;;;;;;;2.33;2.00;;;24.10;35.00;;;;;;4990843;28;45311;-41
2023/12/26 19:01:05;;;;;;;2.60;1.90;;;24.10;34.90;;;;;;4992846;28;45432;-44
2023/12/26 19:03:31;;;;;;;2.80;2.10;;;24.10;34.90;;;;;;5000712;28;45242;-42
2023/12/26 19:05:56;;;;;;;1.90;1.70;;;24.10;34.80;;;;;;5010210;28;45598;-42
2023/12/26 19:08:22;;;;;;;2.60;1.87;;;24.10;34.80;;;;;;4996306;23;45292;-39
2023/12/26 19:10:48;;;;;;;1.97;1.57;;;24.20;34.80;;;;;;4972688;28;45207;-38
2023/12/26 19:13:18;;;;;;;1.90;1.60;;;24.20;34.80;;;;;;4973085;28;45800;-41
2023/12/26 19:15:44;;;;;;;1.75;1.50;;;24.20;34.70;;;;;;4954307;28;46395;-39
2023/12/26 19:18:10;;;;;;;2.28;1.80;;;24.30;34.70;;;;;;4993106;28;44935;-39
2023/12/26 19:20:36;;;;;;;1.85;1.58;;;24.40;34.80;;;;;;4980185;28;45429;-39
2023/12/26 19:23:02;;;;;;;2.13;1.70;;;24.40;34.60;;;;;;4973131;28;45207;-40
2023/12/26 19:25:27;;;;;;;2.03;1.30;;;24.40;34.60;;;;;;4969016;28;45549;-38
2023/12/26 19:27:54;;;;;;;1.90;1.43;;;24.40;34.60;;;;;;4973193;28;45578;-39
2023/12/26 19:30:19;;;;;;;2.08;1.25;;;24.40;34.50;;;;;;4977297;28;46355;-38
2023/12/26 19:32:45;;;;;;;2.10;1.40;;;24.40;34.50;;;;;;4969900;28;45690;-39
2023/12/26 19:35:11;;;;;;;1.57;1.20;;;24.50;34.40;;;;;;4976430;28;45874;-39
2023/12/26 19:37:39;;;;;;;2.47;1.30;;;24.50;34.40;;;;;;4983211;28;45233;-39
2023/12/26 19:40:06;;;;;;;1.27;1.17;;;24.50;34.40;;;;;;4987464;28;45324;-38
2023/12/26 19:42:32;;;;;;;1.67;1.30;;;24.50;34.30;;;;;;4978737;28;46128;-40
2023/12/26 19:44:58;;;;;;;1.73;1.30;;;24.60;34.30;;;;;;4992108;28;45339;-41
2023/12/26 19:47:24;;;;;;;1.88;1.30;;;24.60;34.30;;;;;;4973798;28;45273;-40
2023/12/26 19:49:50;;;;;;;1.98;1.50;;;24.60;34.20;;;;;;4976928;28;45335;-40
2023/12/26 19:52:15;;;;;;;1.98;1.50;;;24.60;34.20;;;;;;4952529;28;46030;-39
2023/12/26 19:54:44;;;;;;;1.20;1.10;;;24.70;34.20;;;;;;4978499;28;45388;-39
2023/12/26 19:57:10;;;;;;;1.50;1.15;;;24.70;34.10;;;;;;4981328;28;45723;-39
2023/12/26 19:59:35;;;;;;;1.73;1.40;;;24.70;34.10;;;;;;4988747;28;45931;-38
2023/12/26 20:02:01;;;;;;;2.15;1.30;;;24.70;34.10;;;;;;4959115;28;45841;-40
2023/12/26 20:04:27;;;;;;;1.52;1.30;;;24.70;34.10;;;;;;4957584;28;45914;-39
2023/12/26 20:06:52;;;;;;;2.17;1.30;;;24.70;34.10;;;;;;4973419;28;45279;-40
2023/12/26 20:09:19;;;;;;;1.50;1.15;;;24.80;34.00;;;;;;4980123;28;45577;-38
2023/12/26 20:11:45;;;;;;;2.17;1.35;;;24.80;34.00;;;;;;4981522;28;45279;-39
2023/12/26 20:14:11;;;;;;;1.50;1.30;;;24.80;34.00;;;;;;4988201;28;45499;-39
2023/12/26 20:16:47;;;;;;;2.00;1.50;;;24.80;34.00;;;;;;4969416;28;46340;-40
2023/12/26 20:19:14;;;;;;;1.35;1.20;;;24.80;33.90;;;;;;4989287;28;45627;-39
2023/12/26 20:21:40;;;;;;;1.90;1.50;;;24.80;33.90;;;;;;4943948;28;45360;-38
2023/12/26 20:24:09;;;;;;;2.05;1.80;;;24.80;33.90;;;;;;4977323;28;45558;-39
2023/12/26 20:26:42;;;;;;;2.28;1.98;;;24.80;33.80;;;;;;4919636;28;46653;-39
2023/12/26 20:29:07;;;;;;;2.45;2.10;;;24.80;33.80;;;;;;4969108;28;45321;-41
2023/12/26 20:31:33;;;;;;;2.30;2.07;;;24.90;33.80;;;;;;4969385;28;45150;-38
2023/12/26 20:33:59;;;;;;;3.33;2.50;;;24.90;33.80;;;;;;4990063;28;45187;-39
2023/12/26 20:36:25;;;;;;;3.70;2.80;;;24.90;33.80;;;;;;4964915;28;45628;-38
2023/12/26 20:38:51;;;;;;;2.88;2.58;;;24.90;33.80;;;;;;4986102;28;45312;-39
2023/12/26 20:41:16;;;;;;;3.08;2.72;;;24.90;33.70;;;;;;4983052;28;45597;-39
2023/12/26 20:43:42;;;;;;;3.13;2.60;;;24.90;33.80;;;;;;4971551;28;45380;-39
2023/12/26 20:46:07;;;;;;;3.08;2.75;;;24.90;33.70;;;;;;4947321;28;45419;-39
2023/12/26 20:48:33;;;;;;;3.20;2.72;;;24.90;33.70;;;;;;4969646;28;45504;-38
2023/12/26 20:50:58;;;;;;;2.90;2.60;;;25.00;33.70;;;;;;4980563;28;45569;-40
2023/12/26 20:53:24;;;;;;;3.15;2.75;;;24.90;33.70;;;;;;4987440;28;45237;-38
2023/12/26 20:55:51;;;;;;;2.72;2.50;;;25.00;33.70;;;;;;4977950;28;45293;-39
2023/12/26 20:58:17;;;;;;;2.85;2.47;;;25.00;33.60;;;;;;4986458;28;45561;-39
2023/12/26 21:00:46;;;;;;;2.72;2.42;;;25.00;33.70;;;;;;4959882;28;45687;-38
2023/12/26 21:03:12;;;;;;;3.57;2.60;;;25.00;33.60;;;;;;4987361;28;45427;-39
2023/12/26 21:05:37;;;;;;;3.03;2.63;;;25.00;33.60;;;;;;4978203;28;45037;-40
2023/12/26 21:08:03;;;;;;;3.13;2.60;;;25.00;33.60;;;;;;4979436;28;45176;-40
2023/12/26 21:10:29;;;;;;;2.90;2.50;;;25.00;33.50;;;;;;4971546;28;45785;-39
2023/12/26 21:12:54;;;;;;;3.33;2.60;;;25.00;33.50;;;;;;4995632;28;46333;-39
2023/12/26 21:15:20;;;;;;;2.55;2.22;;;25.00;33.50;;;;;;4980710;28;45246;-39
2023/12/26 21:17:46;;;;;;;2.50;2.30;;;25.00;33.50;;;;;;4939329;28;45404;-39
2023/12/26 21:20:11;;;;;;;2.20;2.00;;;25.00;34.10;;;;;;4950072;28;45463;-39
2023/12/26 21:22:37;;;;;;;2.88;2.50;;;25.10;33.50;;;;;;4977882;28;46089;-40
2023/12/26 21:25:04;;;;;;;2.33;1.95;;;25.00;33.50;;;;;;4985107;28;45312;-38
2023/12/26 21:27:30;;;;;;;2.53;2.00;;;25.10;33.50;;;;;;4945077;28;46542;-45
2023/12/26 21:29:55;;;;;;;2.72;2.17;;;25.10;33.50;;;;;;4985887;28;45730;-43
2023/12/26 21:32:21;;;;;;;2.47;2.10;;;25.10;33.40;;;;;;4972479;28;45793;-44
2023/12/26 21:34:46;;;;;;;1.90;1.70;;;25.10;33.40;;;;;;4989953;28;45256;-44
2023/12/26 21:37:12;;;;;;;2.20;1.80;;;25.10;33.40;;;;;;4982709;28;45187;-43
2023/12/26 21:39:39;;;;;;;2.77;1.70;;;25.10;33.40;;;;;;4977330;28;45483;-46
2023/12/26 21:42:05;;;;;;;2.28;1.77;;;25.10;33.40;;;;;;4974962;28;45712;-45
2023/12/26 21:44:30;;;;;;;2.23;1.67;;;25.10;33.40;;;;;;4986047;28;45244;-45
2023/12/26 21:46:56;;;;;;;2.00;1.50;;;25.10;33.40;;;;;;4944875;28;45617;-44
2023/12/26 21:49:22;;;;;;;2.03;1.60;;;25.10;33.40;;;;;;4983316;28;45295;-43
2023/12/26 21:51:48;;;;;;;2.43;1.50;;;25.10;33.30;;;;;;4971523;28;46224;-43
2023/12/26 21:54:13;;;;;;;2.30;1.60;;;25.10;33.30;;;;;;4988150;28;45074;-46
2023/12/26 21:56:39;;;;;;;1.60;1.30;;;25.10;33.40;;;;;;4976869;28;47077;-43
2023/12/26 21:59:05;;;;;;;2.15;1.45;;;25.10;33.30;;;;;;4970583;28;45597;-43
